Time;durP1;ratioP1;P1;durP2;ratioP2;P2;SDS_P1;SDS_P2;PMS_P1;PMS_P2;Temp;Humidity;BMP_temperature;BMP_pressure;BME280_temperature;BME280_humidity;BME280_pressure;Samples;Min_cycle;Max_cycle;Signal;HPM_P1;HPM_P2
2021/06/16 00:01:06;;;;;;;2.17;1.20;;;18.50;98.00;;;;;;5074325;28;20461;-75
2021/06/16 00:03:33;;;;;;;1.30;1.17;;;18.60;98.00;;;;;;5069892;28;20525;-75
2021/06/16 00:06:00;;;;;;;1.57;1.37;;;18.60;98.00;;;;;;5073481;28;20500;-75
2021/06/16 00:08:27;;;;;;;3.50;1.20;;;18.50;98.00;;;;;;5069398;28;20861;-75
2021/06/16 00:10:55;;;;;;;2.73;1.30;;;18.40;98.00;;;;;;5073593;28;20913;-75
2021/06/16 00:13:22;;;;;;;2.03;1.40;;;18.30;98.00;;;;;;5070565;28;20521;-76
2021/06/16 00:15:51;;;;;;;1.50;1.40;;;18.30;98.00;;;;;;5073872;28;20871;-75
2021/06/16 00:18:18;;;;;;;1.40;1.20;;;18.30;98.00;;;;;;5070097;28;20460;-76
2021/06/16 00:20:45;;;;;;;2.17;1.30;;;18.50;98.00;;;;;;5074185;28;20522;-76
2021/06/16 00:23:12;;;;;;;1.87;1.40;;;18.50;98.00;;;;;;5071152;28;20453;-75
2021/06/16 00:25:40;;;;;;;1.80;1.27;;;18.50;98.00;;;;;;5074022;28;20468;-76
2021/06/16 00:28:08;;;;;;;1.60;1.37;;;18.50;98.00;;;;;;5070794;28;20955;-75
2021/06/16 00:30:35;;;;;;;1.20;1.10;;;18.40;98.00;;;;;;5073500;28;20453;-76
2021/06/16 00:33:02;;;;;;;1.97;1.33;;;18.40;98.00;;;;;;5070656;28;20461;-75
2021/06/16 00:35:29;;;;;;;1.50;1.20;;;18.40;98.00;;;;;;5073482;28;20554;-75
2021/06/16 00:37:57;;;;;;;1.20;1.10;;;18.30;98.00;;;;;;5069826;28;20541;-76
2021/06/16 00:40:27;;;;;;;1.40;1.30;;;18.20;98.00;;;;;;5073595;28;20444;-75
2021/06/16 00:42:57;;;;;;;1.30;1.10;;;18.20;98.00;;;;;;5070434;28;20452;-76
2021/06/16 00:45:26;;;;;;;1.47;1.20;;;18.10;98.00;;;;;;5073446;28;20461;-76
2021/06/16 00:47:55;;;;;;;1.30;1.20;;;18.00;98.00;;;;;;5070660;28;20584;-76
2021/06/16 00:50:24;;;;;;;2.13;1.37;;;17.90;98.00;;;;;;5073298;28;20503;-76
2021/06/16 00:52:52;;;;;;;1.27;1.20;;;17.80;98.00;;;;;;5072679;28;20459;-76
2021/06/16 00:55:19;;;;;;;1.77;1.33;;;17.80;98.00;;;;;;5072448;28;20491;-75
2021/06/16 00:57:46;;;;;;;1.30;1.10;;;17.80;98.00;;;;;;5072168;28;21188;-75
2021/06/16 01:00:18;;;;;;;1.47;1.30;;;17.90;98.00;;;;;;5070873;28;20525;-75
2021/06/16 01:05:40;;;;;;;1.50;1.40;;;17.90;98.00;;;;;;5071866;28;20464;-76
2021/06/16 01:08:09;;;;;;;1.40;1.17;;;17.90;98.00;;;;;;5069543;28;20453;-75
2021/06/16 01:10:41;;;;;;;1.33;1.10;;;17.80;98.00;;;;;;5073184;28;20974;-76
2021/06/16 01:13:14;;;;;;;1.30;1.10;;;17.80;98.00;;;;;;5069918;28;20529;-75
2021/06/16 01:15:50;;;;;;;1.23;1.10;;;17.70;98.00;;;;;;5072912;28;20480;-75
2021/06/16 01:18:22;;;;;;;2.07;1.10;;;17.80;98.00;;;;;;5070430;28;20932;-76
2021/06/16 01:20:50;;;;;;;1.40;1.30;;;17.80;98.00;;;;;;5072898;28;20456;-76
2021/06/16 01:23:50;;;;;;;1.47;1.13;;;17.90;98.00;;;;;;5070844;28;21029;-75
2021/06/16 01:26:26;;;;;;;1.80;1.30;;;17.80;98.00;;;;;;5053187;28;20453;-76
2021/06/16 01:28:58;;;;;;;2.03;1.47;;;17.70;98.00;;;;;;5070427;28;20506;-75
2021/06/16 01:31:26;;;;;;;1.87;1.40;;;17.70;98.00;;;;;;5072580;28;20449;-75
2021/06/16 01:33:53;;;;;;;1.77;1.20;;;17.50;98.00;;;;;;5069852;28;20574;-75
2021/06/16 01:36:23;;;;;;;2.07;1.40;;;17.50;98.00;;;;;;5072454;28;20464;-76
2021/06/16 01:38:51;;;;;;;1.60;1.33;;;17.50;98.00;;;;;;5069814;28;20457;-75
2021/06/16 01:41:19;;;;;;;1.77;1.53;;;17.50;98.00;;;;;;5072249;28;20453;-75
2021/06/16 01:43:50;;;;;;;1.37;1.20;;;17.50;98.00;;;;;;5069501;28;20539;-75
2021/06/16 01:46:19;;;;;;;1.40;1.30;;;17.50;98.00;;;;;;5072179;28;20909;-76
2021/06/16 01:48:48;;;;;;;1.50;1.30;;;17.60;98.00;;;;;;5069688;28;20484;-76
2021/06/16 01:51:16;;;;;;;1.30;1.20;;;17.60;98.00;;;;;;5072009;28;20499;-75
2021/06/16 01:53:43;;;;;;;1.30;1.13;;;17.80;98.00;;;;;;5069035;28;20479;-76
2021/06/16 01:56:11;;;;;;;1.60;1.20;;;17.80;98.00;;;;;;5072458;28;20809;-75
2021/06/16 01:58:39;;;;;;;2.83;1.70;;;17.90;98.00;;;;;;5069570;28;21009;-76
2021/06/16 02:01:10;;;;;;;1.40;1.20;;;17.70;98.00;;;;;;5072056;28;20519;-76
2021/06/16 02:03:37;;;;;;;1.83;1.10;;;17.60;98.00;;;;;;5068570;28;20457;-75
2021/06/16 02:06:05;;;;;;;1.53;1.40;;;17.50;98.00;;;;;;5071980;28;20449;-76
2021/06/16 02:08:34;;;;;;;1.30;1.10;;;17.50;98.00;;;;;;5069116;28;20518;-75
2021/06/16 02:11:04;;;;;;;1.20;1.20;;;17.30;98.00;;;;;;5071855;28;20538;-76
2021/06/16 02:13:35;;;;;;;1.50;1.40;;;17.20;98.00;;;;;;5068997;28;20519;-75
2021/06/16 02:16:07;;;;;;;1.50;1.17;;;17.20;98.00;;;;;;5071637;28;20480;-75
2021/06/16 02:18:41;;;;;;;1.73;1.30;;;17.20;98.00;;;;;;5069313;28;20453;-75
2021/06/16 02:21:09;;;;;;;2.90;1.30;;;17.30;98.00;;;;;;5071685;28;20479;-76
2021/06/16 02:23:36;;;;;;;1.40;1.23;;;17.30;98.00;;;;;;5068744;28;20553;-75
2021/06/16 02:26:03;;;;;;;1.60;1.10;;;17.20;98.00;;;;;;5071663;28;20448;-76
2021/06/16 02:28:31;;;;;;;1.40;1.20;;;17.10;98.00;;;;;;5067879;28;20476;-75
2021/06/16 02:30:58;;;;;;;1.70;1.50;;;17.10;98.00;;;;;;5071537;28;20456;-75
2021/06/16 02:33:25;;;;;;;1.43;1.13;;;17.00;98.00;;;;;;5069067;28;20885;-75
2021/06/16 02:35:53;;;;;;;1.30;1.10;;;17.00;98.00;;;;;;5071390;28;20538;-76
2021/06/16 02:38:24;;;;;;;1.50;1.30;;;17.10;98.00;;;;;;5069084;28;21151;-76
2021/06/16 02:40:54;;;;;;;1.70;1.50;;;17.00;98.00;;;;;;5071814;28;20518;-76
2021/06/16 02:43:22;;;;;;;2.80;1.17;;;17.00;98.00;;;;;;5068487;28;20517;-75
2021/06/16 02:45:50;;;;;;;1.83;1.20;;;17.00;98.00;;;;;;5071689;28;20488;-75
2021/06/16 02:48:20;;;;;;;1.50;1.20;;;17.10;98.00;;;;;;5068987;28;20517;-75
2021/06/16 02:50:48;;;;;;;1.40;1.20;;;17.10;98.00;;;;;;5071410;28;20528;-76
2021/06/16 02:53:19;;;;;;;1.60;1.20;;;17.00;98.00;;;;;;5068905;28;20457;-76
2021/06/16 02:55:48;;;;;;;1.50;1.30;;;16.90;98.00;;;;;;5071413;28;20573;-75
2021/06/16 02:58:17;;;;;;;1.33;1.20;;;16.90;98.00;;;;;;5068702;28;20449;-76
2021/06/16 03:00:45;;;;;;;2.33;1.50;;;16.90;98.00;;;;;;5071323;28;20510;-75
2021/06/16 03:03:13;;;;;;;1.50;1.10;;;16.90;98.00;;;;;;5068607;28;20856;-75
2021/06/16 03:05:41;;;;;;;3.20;1.63;;;16.80;98.00;;;;;;5072753;28;20448;-75
2021/06/16 03:08:09;;;;;;;1.70;1.30;;;16.80;98.00;;;;;;5073118;28;20472;-77
2021/06/16 03:10:39;;;;;;;2.47;1.63;;;16.80;98.00;;;;;;5075127;28;20456;-75
2021/06/16 03:13:07;;;;;;;1.60;1.30;;;16.70;98.00;;;;;;5074324;28;20456;-75
2021/06/16 03:15:35;;;;;;;2.20;1.20;;;16.70;98.00;;;;;;5074908;28;20516;-75
2021/06/16 03:18:03;;;;;;;2.33;1.47;;;16.80;98.00;;;;;;5075226;28;20461;-75
2021/06/16 03:20:36;;;;;;;1.20;1.10;;;16.90;98.00;;;;;;5071938;28;20461;-75
2021/06/16 03:23:04;;;;;;;1.30;1.13;;;17.00;98.00;;;;;;5073999;28;20466;-76
2021/06/16 03:25:35;;;;;;;1.50;1.23;;;16.90;98.00;;;;;;5073108;28;20526;-76
2021/06/16 03:28:04;;;;;;;1.30;1.10;;;17.00;98.00;;;;;;5075377;28;20533;-76
2021/06/16 03:30:31;;;;;;;3.50;1.97;;;16.90;98.00;;;;;;5072818;28;20850;-77
2021/06/16 03:33:00;;;;;;;1.63;1.50;;;16.80;98.00;;;;;;5075110;28;20912;-78
2021/06/16 03:35:29;;;;;;;1.30;1.10;;;16.70;98.00;;;;;;5072304;28;20485;-79
2021/06/16 03:37:58;;;;;;;1.30;1.13;;;16.70;98.00;;;;;;5074509;28;20543;-78
2021/06/16 03:40:27;;;;;;;1.50;1.17;;;16.50;98.00;;;;;;5071875;28;20509;-78
2021/06/16 03:42:57;;;;;;;2.73;1.70;;;16.40;98.00;;;;;;5074928;28;20472;-79
2021/06/16 03:45:27;;;;;;;1.60;1.27;;;16.40;98.00;;;;;;5072066;28;20453;-76
2021/06/16 03:47:58;;;;;;;1.40;1.23;;;16.40;98.00;;;;;;5074446;28;20448;-80
2021/06/16 03:50:27;;;;;;;2.50;1.40;;;16.40;98.00;;;;;;5071600;28;20880;-78
2021/06/16 03:52:56;;;;;;;1.20;1.10;;;16.50;98.00;;;;;;5074710;28;20463;-75
2021/06/16 03:55:23;;;;;;;1.60;1.13;;;16.50;98.00;;;;;;5071617;28;20520;-80
2021/06/16 03:57:51;;;;;;;1.60;1.17;;;16.50;98.00;;;;;;5073233;28;20456;-77
2021/06/16 04:00:21;;;;;;;1.73;1.33;;;16.50;98.00;;;;;;5071629;28;20536;-78
2021/06/16 04:02:49;;;;;;;1.70;1.50;;;16.60;98.00;;;;;;5074376;28;20461;-76
2021/06/16 04:05:17;;;;;;;1.70;1.40;;;16.60;98.00;;;;;;5071117;28;20452;-78
2021/06/16 04:07:48;;;;;;;1.30;1.10;;;16.60;98.00;;;;;;5074405;28;20460;-76
2021/06/16 04:10:18;;;;;;;1.20;1.10;;;16.70;98.00;;;;;;5071516;28;20453;-77
2021/06/16 04:12:47;;;;;;;1.80;1.17;;;16.70;98.00;;;;;;5073957;28;20453;-78
2021/06/16 04:15:15;;;;;;;1.20;1.10;;;16.70;98.00;;;;;;5071099;28;20847;-77
2021/06/16 04:17:42;;;;;;;1.60;1.20;;;16.80;98.00;;;;;;5074042;28;20530;-77
2021/06/16 04:20:12;;;;;;;1.60;1.20;;;16.90;98.00;;;;;;5071638;28;20452;-78
2021/06/16 04:22:39;;;;;;;1.60;1.13;;;17.00;98.00;;;;;;5074172;28;20445;-76
2021/06/16 04:25:08;;;;;;;1.53;1.30;;;17.00;98.00;;;;;;5071319;28;20567;-78
2021/06/16 04:27:36;;;;;;;1.40;1.30;;;17.10;98.00;;;;;;5072872;28;20453;-77
2021/06/16 04:30:04;;;;;;;1.60;1.50;;;17.30;98.00;;;;;;5070676;28;20445;-78
2021/06/16 04:32:31;;;;;;;2.27;1.40;;;17.30;98.00;;;;;;5073722;28;20547;-78
2021/06/16 04:34:58;;;;;;;1.40;1.27;;;17.40;98.00;;;;;;5070809;28;20565;-78
2021/06/16 04:37:27;;;;;;;1.50;1.30;;;17.40;98.00;;;;;;5073876;28;20464;-78
2021/06/16 04:39:54;;;;;;;2.33;1.63;;;17.50;98.00;;;;;;5070958;28;20453;-77
2021/06/16 04:42:21;;;;;;;1.80;1.40;;;17.40;98.00;;;;;;5073720;28;20492;-79
2021/06/16 04:44:48;;;;;;;1.70;1.30;;;17.40;98.00;;;;;;5070624;28;20457;-77
2021/06/16 04:47:15;;;;;;;1.40;1.30;;;17.60;98.00;;;;;;5072853;28;20453;-78
2021/06/16 04:49:42;;;;;;;3.40;1.20;;;17.70;98.00;;;;;;5070506;28;20577;-78
2021/06/16 04:52:09;;;;;;;1.37;1.20;;;17.70;98.00;;;;;;5073575;28;20455;-79
2021/06/16 04:54:38;;;;;;;1.40;1.30;;;17.80;98.00;;;;;;5070389;28;20550;-77
2021/06/16 04:57:06;;;;;;;1.87;1.30;;;17.80;98.00;;;;;;5073428;28;20521;-77
2021/06/16 04:59:34;;;;;;;2.47;1.57;;;17.90;98.00;;;;;;5070578;28;20518;-76
2021/06/16 05:02:01;;;;;;;1.20;1.10;;;18.00;98.00;;;;;;5073362;28;20974;-79
2021/06/16 05:04:29;;;;;;;1.50;1.30;;;18.00;98.00;;;;;;5070437;28;20479;-77
2021/06/16 05:06:57;;;;;;;1.30;1.10;;;18.00;98.00;;;;;;5073099;28;20497;-79
2021/06/16 05:09:25;;;;;;;2.30;1.80;;;18.00;98.00;;;;;;5070344;28;20461;-76
2021/06/16 05:11:53;;;;;;;1.20;1.10;;;18.00;98.00;;;;;;5073079;28;20510;-77
2021/06/16 05:14:20;;;;;;;1.40;1.23;;;18.00;98.00;;;;;;5070603;28;20449;-77
2021/06/16 05:16:48;;;;;;;1.20;1.07;;;17.90;98.00;;;;;;5073052;28;20484;-78
2021/06/16 05:19:17;;;;;;;1.50;1.30;;;17.80;98.00;;;;;;5070111;28;21083;-78
2021/06/16 05:21:44;;;;;;;2.30;1.40;;;17.90;98.00;;;;;;5071593;28;20484;-78
2021/06/16 05:24:11;;;;;;;1.87;1.40;;;18.00;98.00;;;;;;5068946;28;20477;-78
2021/06/16 05:26:40;;;;;;;1.77;1.40;;;18.00;98.00;;;;;;5072894;28;20457;-77
2021/06/16 05:29:09;;;;;;;2.23;1.30;;;18.10;98.00;;;;;;5069741;28;20873;-79
2021/06/16 05:31:38;;;;;;;1.50;1.30;;;18.10;98.00;;;;;;5072750;28;20831;-78
2021/06/16 05:34:06;;;;;;;1.40;1.30;;;18.00;98.00;;;;;;5069886;28;21129;-77
2021/06/16 05:36:33;;;;;;;1.47;1.20;;;18.00;98.00;;;;;;5070988;28;20557;-77
2021/06/16 05:39:01;;;;;;;1.20;1.10;;;18.10;98.00;;;;;;5069213;28;20492;-77
2021/06/16 05:41:28;;;;;;;1.60;1.20;;;18.20;98.00;;;;;;5072585;28;20850;-77
2021/06/16 05:43:55;;;;;;;2.40;1.60;;;18.30;98.00;;;;;;5069915;28;20989;-78
2021/06/16 05:46:24;;;;;;;1.30;1.10;;;18.50;98.00;;;;;;5072986;28;20511;-78
2021/06/16 05:48:51;;;;;;;1.30;1.10;;;18.60;98.00;;;;;;5070370;28;20461;-69
2021/06/16 05:51:18;;;;;;;1.20;1.10;;;18.60;98.00;;;;;;5072803;28;20468;-77
2021/06/16 05:53:45;;;;;;;1.30;1.30;;;18.70;98.00;;;;;;5070066;28;20464;-77
2021/06/16 05:56:12;;;;;;;2.17;1.30;;;18.80;98.00;;;;;;5072552;28;20952;-77
2021/06/16 05:58:39;;;;;;;1.80;1.23;;;18.90;98.00;;;;;;5069876;28;20503;-79
2021/06/16 06:01:06;;;;;;;1.80;1.40;;;18.90;98.00;;;;;;5072397;28;20518;-77
2021/06/16 06:03:36;;;;;;;1.47;1.40;;;19.00;98.00;;;;;;5069638;28;20453;-78
2021/06/16 06:06:04;;;;;;;2.97;2.83;;;19.10;98.00;;;;;;5072151;28;20457;-77
2021/06/16 06:08:31;;;;;;;1.30;1.23;;;19.10;98.00;;;;;;5069157;28;20551;-76
2021/06/16 06:10:58;;;;;;;1.77;1.30;;;19.20;98.00;;;;;;5071911;28;20816;-77
2021/06/16 06:13:25;;;;;;;1.70;1.30;;;19.20;98.00;;;;;;5070166;28;20445;-78
2021/06/16 06:15:52;;;;;;;1.30;1.20;;;19.20;98.00;;;;;;5071197;28;20480;-74
2021/06/16 06:18:19;;;;;;;1.70;1.27;;;19.30;98.00;;;;;;5070457;28;20992;-75
2021/06/16 06:20:48;;;;;;;1.20;1.10;;;19.70;98.00;;;;;;5068720;28;20449;-77
2021/06/16 06:23:17;;;;;;;1.73;1.20;;;20.20;98.00;;;;;;5071748;28;20533;-77
2021/06/16 06:25:44;;;;;;;2.03;1.37;;;20.70;98.00;;;;;;5068577;28;20472;-74
2021/06/16 06:28:11;;;;;;;1.80;1.20;;;21.10;98.00;;;;;;5071500;28;20510;-76
2021/06/16 06:30:38;;;;;;;1.30;1.30;;;21.50;98.00;;;;;;5068899;28;20487;-75
2021/06/16 06:33:06;;;;;;;1.47;1.23;;;21.80;98.00;;;;;;5071940;28;20500;-75
2021/06/16 06:35:33;;;;;;;1.80;1.40;;;22.10;98.00;;;;;;5068622;28;21079;-76
2021/06/16 06:38:07;;;;;;;1.70;1.50;;;22.20;98.00;;;;;;5071761;28;20485;-76
2021/06/16 06:40:34;;;;;;;1.50;1.30;;;22.40;98.00;;;;;;5067551;28;20440;-75
2021/06/16 06:43:03;;;;;;;1.97;1.33;;;22.50;98.00;;;;;;5071473;28;20496;-77
2021/06/16 06:45:30;;;;;;;1.77;1.60;;;22.60;97.80;;;;;;5068645;28;20448;-75
2021/06/16 06:47:58;;;;;;;1.63;1.43;;;22.70;97.50;;;;;;5071325;28;20453;-76
2021/06/16 06:50:25;;;;;;;2.40;1.50;;;22.70;97.30;;;;;;5068521;28;20933;-74
2021/06/16 06:52:54;;;;;;;2.50;1.73;;;22.80;97.30;;;;;;5071370;28;20514;-76
2021/06/16 06:55:22;;;;;;;1.93;1.27;;;22.90;97.00;;;;;;5068567;28;20779;-76
2021/06/16 06:57:50;;;;;;;1.43;1.30;;;23.10;96.30;;;;;;5071106;28;20502;-76
2021/06/16 07:00:18;;;;;;;2.33;1.80;;;23.00;96.60;;;;;;5068162;28;20514;-75
2021/06/16 07:02:45;;;;;;;1.40;1.23;;;23.10;96.30;;;;;;5071292;28;20514;-76
2021/06/16 07:05:13;;;;;;;2.50;1.80;;;23.10;95.90;;;;;;5068041;28;20620;-76
2021/06/16 07:07:41;;;;;;;1.60;1.40;;;23.20;96.50;;;;;;5071100;28;20500;-75
2021/06/16 07:10:09;;;;;;;1.97;1.50;;;23.30;95.60;;;;;;5068681;28;20522;-76
2021/06/16 07:12:37;;;;;;;1.80;1.50;;;23.40;95.40;;;;;;5071153;28;20496;-76
2021/06/16 07:15:05;;;;;;;1.87;1.43;;;23.60;94.80;;;;;;5068775;28;20449;-76
2021/06/16 07:17:33;;;;;;;2.80;1.77;;;23.40;96.10;;;;;;5071043;28;20566;-75
2021/06/16 07:20:00;;;;;;;1.60;1.50;;;23.40;96.40;;;;;;5068459;28;20453;-77
2021/06/16 07:22:27;;;;;;;1.73;1.50;;;23.40;95.90;;;;;;5071121;28;20805;-76
2021/06/16 07:24:54;;;;;;;1.50;1.33;;;23.40;96.10;;;;;;5068209;28;20522;-76
2021/06/16 07:27:21;;;;;;;2.10;1.90;;;23.40;96.10;;;;;;5071224;28;20499;-76
2021/06/16 07:29:50;;;;;;;1.40;1.37;;;23.40;96.20;;;;;;5067951;28;20492;-75
2021/06/16 07:32:17;;;;;;;2.10;1.77;;;23.50;95.20;;;;;;5069819;28;20492;-77
2021/06/16 07:34:45;;;;;;;2.00;1.47;;;23.60;95.50;;;;;;5067570;28;20544;-79
2021/06/16 07:37:12;;;;;;;2.13;1.73;;;23.70;95.30;;;;;;5070380;28;20577;-77
2021/06/16 07:39:40;;;;;;;2.23;1.63;;;23.80;95.30;;;;;;5067981;28;20939;-76
2021/06/16 07:42:07;;;;;;;1.47;1.33;;;23.80;93.60;;;;;;5070481;28;20449;-78
2021/06/16 07:44:34;;;;;;;1.90;1.63;;;23.80;94.20;;;;;;5067546;28;21084;-74
2021/06/16 07:47:03;;;;;;;2.70;1.90;;;23.80;95.50;;;;;;5070461;28;20514;-73
2021/06/16 07:49:30;;;;;;;1.60;1.50;;;23.90;93.50;;;;;;5067402;28;20510;-78
2021/06/16 07:51:57;;;;;;;1.40;1.37;;;23.90;94.90;;;;;;5072547;28;20480;-77
2021/06/16 07:54:24;;;;;;;1.63;1.43;;;24.00;94.90;;;;;;5069624;28;20533;-78
2021/06/16 07:56:52;;;;;;;1.80;1.70;;;24.10;95.30;;;;;;5073323;28;20549;-77
2021/06/16 07:59:20;;;;;;;1.50;1.50;;;24.20;94.20;;;;;;5071351;28;20514;-76
2021/06/16 08:01:48;;;;;;;1.57;1.37;;;24.30;94.60;;;;;;5074200;28;20651;-79
2021/06/16 08:04:19;;;;;;;1.60;1.60;;;24.40;93.90;;;;;;5071063;28;20476;-77
2021/06/16 08:06:46;;;;;;;2.13;1.73;;;24.40;94.00;;;;;;5073951;28;20457;-77
2021/06/16 08:09:12;;;;;;;1.40;1.33;;;24.60;93.40;;;;;;5071483;28;20966;-78
2021/06/16 08:11:39;;;;;;;2.00;1.50;;;24.80;92.40;;;;;;5073792;28;21239;-77
2021/06/16 08:14:07;;;;;;;1.73;1.70;;;24.90;91.90;;;;;;5077340;28;20490;-78
2021/06/16 08:16:34;;;;;;;1.77;1.50;;;24.90;90.40;;;;;;5093984;28;20522;-79
2021/06/16 08:19:01;;;;;;;1.80;1.63;;;25.00;92.10;;;;;;5090047;28;20447;-77
2021/06/16 08:21:29;;;;;;;2.10;1.57;;;25.10;92.20;;;;;;5093976;28;20500;-79
2021/06/16 08:23:56;;;;;;;1.80;1.70;;;25.30;92.40;;;;;;5080737;28;21012;-78
2021/06/16 08:26:23;;;;;;;2.50;1.67;;;25.40;91.10;;;;;;5071904;28;20526;-77
2021/06/16 08:28:50;;;;;;;1.80;1.77;;;25.50;90.10;;;;;;5070061;28;20518;-76
2021/06/16 08:31:17;;;;;;;2.07;1.47;;;25.70;90.40;;;;;;5073509;28;20992;-78
2021/06/16 08:33:44;;;;;;;2.00;1.40;;;25.80;89.90;;;;;;5070840;28;20526;-78
2021/06/16 08:36:11;;;;;;;1.30;1.30;;;25.90;89.00;;;;;;5072978;28;21072;-70
2021/06/16 08:38:39;;;;;;;1.90;1.40;;;26.10;89.40;;;;;;5071687;28;21037;-76
2021/06/16 08:41:08;;;;;;;2.67;1.33;;;26.20;87.40;;;;;;5072910;28;20468;-81
2021/06/16 08:43:40;;;;;;;1.90;1.57;;;26.30;87.00;;;;;;5073283;28;20989;-75
2021/06/16 08:46:13;;;;;;;1.80;1.33;;;26.40;86.80;;;;;;5072635;28;20480;-77
2021/06/16 08:48:45;;;;;;;1.50;1.40;;;26.50;85.70;;;;;;5070241;28;20453;-73
2021/06/16 08:51:15;;;;;;;1.20;1.10;;;26.60;86.70;;;;;;5073022;28;20514;-75
2021/06/16 08:53:44;;;;;;;1.77;1.33;;;26.80;82.70;;;;;;5070706;28;20507;-78
2021/06/16 08:56:13;;;;;;;1.30;1.30;;;26.90;80.30;;;;;;5073072;28;20553;-75
2021/06/16 08:58:45;;;;;;;1.93;1.53;;;27.10;82.20;;;;;;5071703;28;20518;-74
2021/06/16 09:01:13;;;;;;;1.33;1.30;;;27.30;80.20;;;;;;5072868;28;20487;-73
2021/06/16 09:03:40;;;;;;;2.17;1.70;;;27.50;79.10;;;;;;5071207;28;21135;-75
2021/06/16 09:06:09;;;;;;;1.70;1.47;;;27.70;79.30;;;;;;5071438;28;20514;-75
2021/06/16 09:08:54;;;;;;;1.57;1.47;;;27.80;79.90;;;;;;5072310;28;20802;-73
2021/06/16 09:11:24;;;;;;;1.30;1.30;;;28.00;77.90;;;;;;5072630;28;20457;-70
2021/06/16 09:13:52;;;;;;;1.43;1.37;;;28.10;77.80;;;;;;5071615;28;20958;-71
2021/06/16 09:16:33;;;;;;;1.80;1.50;;;28.30;78.80;;;;;;5092687;28;20480;-77
2021/06/16 09:19:03;;;;;;;2.27;1.80;;;28.40;79.00;;;;;;5089872;28;20541;-76
2021/06/16 09:21:38;;;;;;;2.10;1.70;;;28.60;76.70;;;;;;5092420;28;20460;-78
2021/06/16 09:24:08;;;;;;;2.53;1.90;;;28.70;76.50;;;;;;5088414;28;20482;-77
2021/06/16 09:26:36;;;;;;;3.03;2.10;;;28.70;77.40;;;;;;5092471;28;20452;-77
2021/06/16 09:29:04;;;;;;;3.03;1.60;;;28.80;75.50;;;;;;5088571;28;20460;-77
2021/06/16 09:31:37;;;;;;;4.07;2.57;;;28.90;76.50;;;;;;5092393;28;20509;-74
2021/06/16 09:34:10;;;;;;;1.60;1.40;;;29.00;75.80;;;;;;5089746;28;20496;-75
2021/06/16 09:36:48;;;;;;;1.93;1.63;;;29.10;74.40;;;;;;5092453;28;20475;-77
2021/06/16 09:39:20;;;;;;;3.17;2.97;;;29.20;75.30;;;;;;5073729;28;20453;-75
2021/06/16 09:41:59;;;;;;;2.33;1.63;;;29.30;74.90;;;;;;5072227;28;20476;-75
2021/06/16 09:44:40;;;;;;;2.47;2.03;;;29.50;72.80;;;;;;5068765;28;20460;-78
2021/06/16 09:47:15;;;;;;;1.60;1.60;;;29.50;77.00;;;;;;5071948;28;20456;-75
2021/06/16 09:49:54;;;;;;;1.73;1.40;;;29.60;74.30;;;;;;5069050;28;20460;-73
2021/06/16 09:52:30;;;;;;;2.23;1.67;;;29.60;75.00;;;;;;5071732;28;20464;-75
2021/06/16 09:55:07;;;;;;;1.70;1.40;;;29.70;72.50;;;;;;5069384;28;20543;-78
2021/06/16 09:57:35;;;;;;;1.60;1.50;;;29.90;74.60;;;;;;5070263;28;20483;-73
2021/06/16 10:00:08;;;;;;;1.53;1.40;;;30.00;70.90;;;;;;5068811;28;20869;-73
2021/06/16 10:02:40;;;;;;;2.27;1.50;;;30.10;69.10;;;;;;5071493;28;20448;-74
2021/06/16 10:05:11;;;;;;;2.93;1.50;;;30.30;70.60;;;;;;5069399;28;20456;-74
2021/06/16 10:07:38;;;;;;;1.83;1.70;;;30.40;72.20;;;;;;5071338;28;20455;-74
2021/06/16 10:10:09;;;;;;;1.50;1.50;;;30.40;66.10;;;;;;5068527;28;20683;-76
2021/06/16 10:12:37;;;;;;;1.60;1.50;;;30.50;70.40;;;;;;5071580;28;20489;-75
2021/06/16 10:15:07;;;;;;;2.37;1.70;;;30.60;71.00;;;;;;5083386;28;20555;-76
2021/06/16 10:17:34;;;;;;;1.60;1.37;;;30.80;69.60;;;;;;5091253;28;20592;-72
2021/06/16 10:20:01;;;;;;;1.80;1.60;;;30.80;67.50;;;;;;5088597;28;20492;-73
2021/06/16 10:22:28;;;;;;;1.67;1.43;;;30.90;69.90;;;;;;5091392;28;20452;-73
2021/06/16 10:24:55;;;;;;;2.77;1.90;;;30.90;69.40;;;;;;5089065;28;20463;-76
2021/06/16 10:27:31;;;;;;;1.70;1.47;;;30.90;70.00;;;;;;5090016;28;20520;-76
2021/06/16 10:30:04;;;;;;;1.43;1.30;;;31.00;68.80;;;;;;5088610;28;20452;-75
2021/06/16 10:32:40;;;;;;;2.50;1.50;;;31.00;69.00;;;;;;5091234;28;20456;-74
2021/06/16 10:35:08;;;;;;;1.90;1.60;;;31.00;68.00;;;;;;5088683;28;20444;-75
2021/06/16 10:37:37;;;;;;;2.03;1.70;;;31.20;66.50;;;;;;5091295;28;20487;-75
2021/06/16 10:40:43;;;;;;;1.70;1.60;;;31.40;66.80;;;;;;5087978;28;20488;-75
2021/06/16 10:43:30;;;;;;;1.57;1.50;;;31.50;68.00;;;;;;5091415;28;20448;-75
2021/06/16 10:46:00;;;;;;;2.23;1.67;;;31.50;67.80;;;;;;5088716;28;20463;-74
2021/06/16 10:48:43;;;;;;;1.80;1.60;;;31.60;66.80;;;;;;5090861;28;20463;-74
2021/06/16 10:51:22;;;;;;;1.63;1.57;;;31.70;66.00;;;;;;5087540;28;20572;-76
2021/06/16 10:54:14;;;;;;;2.33;1.50;;;31.80;67.20;;;;;;5091345;28;20486;-76
2021/06/16 10:56:45;;;;;;;2.23;1.60;;;32.00;67.30;;;;;;5091331;28;20444;-75
2021/06/16 10:59:13;;;;;;;2.33;1.50;;;32.00;67.50;;;;;;5088358;28;20460;-75
2021/06/16 11:01:48;;;;;;;3.00;1.53;;;32.10;67.20;;;;;;5091311;28;20444;-75
2021/06/16 11:04:31;;;;;;;2.37;1.70;;;32.30;66.40;;;;;;5089040;28;20877;-75
2021/06/16 11:07:02;;;;;;;1.60;1.60;;;32.40;64.60;;;;;;5089697;28;20517;-75
2021/06/16 11:09:51;;;;;;;1.77;1.60;;;32.60;66.10;;;;;;5088612;28;20460;-76
2021/06/16 11:12:28;;;;;;;1.70;1.50;;;32.70;67.20;;;;;;5091208;28;20495;-77
2021/06/16 11:14:58;;;;;;;3.50;1.87;;;32.80;66.10;;;;;;5086147;28;20487;-75
2021/06/16 11:17:46;;;;;;;1.50;1.40;;;33.00;64.20;;;;;;5090898;28;20484;-75
2021/06/16 11:20:19;;;;;;;2.23;1.87;;;33.00;63.40;;;;;;5088666;28;20452;-75
2021/06/16 11:22:55;;;;;;;1.60;1.47;;;33.10;64.20;;;;;;5090890;28;20487;-73
2021/06/16 11:25:32;;;;;;;1.70;1.70;;;32.90;64.60;;;;;;5088390;28;20491;-75
2021/06/16 11:28:21;;;;;;;1.53;1.40;;;33.00;63.30;;;;;;5094625;28;20930;-75
2021/06/16 11:31:07;;;;;;;2.07;1.77;;;33.20;63.20;;;;;;5092529;28;20501;-72
2021/06/16 11:33:52;;;;;;;1.97;1.73;;;33.30;61.40;;;;;;5094807;28;20487;-75
2021/06/16 11:36:39;;;;;;;2.10;1.70;;;33.40;62.80;;;;;;5092220;28;20957;-75
2021/06/16 11:39:10;;;;;;;1.40;1.40;;;33.30;64.70;;;;;;5091829;28;20495;-75
2021/06/16 11:41:45;;;;;;;3.50;2.00;;;33.10;63.50;;;;;;5094965;28;20459;-74
2021/06/16 11:44:13;;;;;;;1.73;1.63;;;33.00;63.80;;;;;;5091527;28;20975;-76
2021/06/16 11:46:44;;;;;;;2.40;1.70;;;33.10;62.90;;;;;;5094722;28;20458;-77
2021/06/16 11:49:13;;;;;;;1.63;1.53;;;33.10;63.40;;;;;;5091409;28;20463;-74
2021/06/16 11:51:44;;;;;;;1.90;1.60;;;33.10;62.90;;;;;;5094514;28;20511;-75
2021/06/16 11:54:22;;;;;;;1.60;1.50;;;33.30;64.00;;;;;;5091688;28;20451;-74
2021/06/16 11:57:00;;;;;;;1.70;1.70;;;33.50;63.40;;;;;;5094353;28;20868;-76
2021/06/16 11:59:37;;;;;;;2.43;1.93;;;33.50;62.90;;;;;;5090138;28;20467;-77
2021/06/16 12:02:18;;;;;;;4.70;2.33;;;33.50;62.60;;;;;;5094186;28;20455;-76
2021/06/16 12:04:50;;;;;;;1.73;1.60;;;33.40;63.10;;;;;;5091734;28;20902;-76
2021/06/16 12:07:21;;;;;;;2.80;1.87;;;33.50;62.60;;;;;;5093872;28;20642;-76
2021/06/16 12:09:53;;;;;;;2.83;1.60;;;33.50;60.70;;;;;;5091099;28;20938;-76
2021/06/16 12:12:20;;;;;;;1.70;1.70;;;33.40;62.70;;;;;;5094038;28;20463;-75
2021/06/16 12:14:47;;;;;;;1.70;1.47;;;33.30;63.20;;;;;;5076126;28;20488;-75
2021/06/16 12:17:16;;;;;;;1.90;1.80;;;33.40;61.90;;;;;;5073642;28;20472;-75
2021/06/16 12:19:43;;;;;;;1.63;1.63;;;33.30;63.10;;;;;;5070645;28;20489;-77
2021/06/16 12:22:11;;;;;;;2.10;1.80;;;33.00;63.30;;;;;;5072186;28;20502;-76
2021/06/16 12:24:40;;;;;;;1.67;1.60;;;32.70;62.20;;;;;;5071184;28;20548;-77
2021/06/16 12:27:11;;;;;;;2.00;1.70;;;32.60;64.10;;;;;;5071789;28;20464;-77
2021/06/16 12:29:44;;;;;;;1.47;1.37;;;32.60;65.40;;;;;;5069154;28;20946;-74
2021/06/16 12:32:12;;;;;;;2.30;1.90;;;32.60;63.60;;;;;;5073124;28;20818;-78
2021/06/16 12:34:57;;;;;;;1.60;1.50;;;32.80;64.50;;;;;;5070215;28;20457;-77
2021/06/16 12:37:25;;;;;;;2.03;1.70;;;32.90;63.60;;;;;;5064206;28;20477;-76
2021/06/16 12:39:54;;;;;;;2.20;1.77;;;33.10;62.10;;;;;;5050281;28;21003;-74
2021/06/16 12:42:21;;;;;;;3.40;1.90;;;33.20;62.60;;;;;;5059409;28;20496;-74
2021/06/16 12:44:48;;;;;;;2.17;1.43;;;33.30;64.70;;;;;;5069560;28;20461;-77
2021/06/16 12:47:19;;;;;;;1.93;1.80;;;33.30;65.00;;;;;;5072990;28;20562;-75
2021/06/16 12:49:52;;;;;;;2.20;1.77;;;33.30;61.90;;;;;;5070635;28;20507;-76
2021/06/16 12:52:30;;;;;;;2.60;1.90;;;33.40;63.80;;;;;;5072223;28;20456;-73
2021/06/16 12:55:08;;;;;;;2.40;1.83;;;33.30;62.80;;;;;;5070911;28;20452;-75
2021/06/16 12:57:44;;;;;;;2.63;2.13;;;33.00;64.60;;;;;;5073040;28;20485;-77
2021/06/16 13:00:14;;;;;;;2.00;1.70;;;32.90;62.90;;;;;;5070442;28;20973;-76
2021/06/16 13:02:42;;;;;;;2.80;2.10;;;33.00;63.70;;;;;;5073425;28;20512;-76
2021/06/16 13:05:12;;;;;;;1.50;1.40;;;33.10;64.10;;;;;;5070389;28;20449;-76